Time;durP1;ratioP1;P1;durP2;ratioP2;P2;SDS_P1;SDS_P2;PMS_P1;PMS_P2;Temp;Humidity;BMP_temperature;BMP_pressure;BME280_temperature;BME280_humidity;BME280_pressure;Samples;Min_cycle;Max_cycle;Signal;HPM_P1;HPM_P2
2022/01/08 00:01:14;;;;;;;52.95;28.90;;;;;;;-1.74;63.45;100140.22;4485666;32;34212;-72
2022/01/08 00:03:42;;;;;;;55.97;29.15;;;;;;;-1.62;63.14;100137.25;4485850;32;33920;-71
2022/01/08 00:06:12;;;;;;;13.73;9.65;;;;;;;-1.53;63.09;100133.66;4485482;32;33351;-72
2022/01/08 00:08:39;;;;;;;3.53;3.10;;;;;;;-1.54;63.29;100134.63;4485348;32;33744;-72
2022/01/08 00:11:07;;;;;;;60.17;29.27;;;;;;;-1.18;62.75;100121.09;4485721;32;35056;-71
2022/01/08 00:13:37;;;;;;;58.60;29.70;;;;;;;-1.54;63.97;100110.69;4485738;32;34544;-71
2022/01/08 00:16:04;;;;;;;64.45;29.87;;;;;;;-2.13;66.08;100118.56;4485742;32;33653;-71
2022/01/08 00:18:32;;;;;;;30.83;13.35;;;;;;;-1.77;64.96;100118.41;4485686;32;33854;-71
2022/01/08 00:21:00;;;;;;;3.12;2.90;;;;;;;-1.69;64.81;100115.78;4485430;32;35078;-71
2022/01/08 00:23:27;;;;;;;58.65;30.12;;;;;;;-1.64;64.63;100118.81;4485674;32;34673;-71
2022/01/08 00:25:55;;;;;;;2.67;2.25;;;;;;;-1.32;63.86;100117.22;4485693;32;33637;-72
2022/01/08 00:28:22;;;;;;;4.15;3.00;;;;;;;-0.97;62.48;100115.28;4485653;32;33947;-72
2022/01/08 00:30:50;;;;;;;57.90;29.73;;;;;;;-0.96;62.54;100120.47;4485597;32;34989;-72
2022/01/08 00:33:19;;;;;;;56.05;29.37;;;;;;;-1.30;63.31;100110.75;4485485;32;34171;-71
2022/01/08 00:35:46;;;;;;;27.15;7.57;;;;;;;-1.00;63.56;100110.31;4485455;32;33541;-71
2022/01/08 00:38:13;;;;;;;53.35;28.87;;;;;;;-0.83;63.19;100109.31;4484802;32;34732;-72
2022/01/08 00:40:41;;;;;;;15.50;10.52;;;;;;;-1.10;63.57;100105.13;4485593;32;34961;-71
2022/01/08 00:43:08;;;;;;;59.67;28.42;;;;;;;-0.87;62.75;100092.81;4485074;32;33922;-71
2022/01/08 00:45:36;;;;;;;55.15;28.52;;;;;;;-0.59;62.02;100099.66;4485487;32;33572;-71
2022/01/08 00:48:04;;;;;;;53.25;30.35;;;;;;;-0.80;62.41;100095.66;4485445;32;34808;-71
2022/01/08 00:50:31;;;;;;;52.90;29.02;;;;;;;-1.21;63.22;100089.47;4485226;32;33791;-71
2022/01/08 00:52:58;;;;;;;2.15;1.70;;;;;;;-0.95;62.23;100084.00;4485554;32;33893;-71
2022/01/08 00:55:26;;;;;;;54.47;28.77;;;;;;;-0.79;61.58;100080.53;4485548;32;33371;-71
2022/01/08 00:57:54;;;;;;;3.80;3.10;;;;;;;-1.02;62.31;100070.53;4485236;32;33946;-71
2022/01/08 01:00:21;;;;;;;51.97;27.23;;;;;;;-0.78;61.15;100066.19;4485396;32;33944;-71
2022/01/08 01:02:49;;;;;;;48.92;27.58;;;;;;;-1.06;62.16;100070.03;4485229;32;33783;-71
2022/01/08 01:05:16;;;;;;;5.35;3.60;;;;;;;-1.07;62.41;100071.03;4484928;32;33528;-71
2022/01/08 01:07:44;;;;;;;48.83;26.65;;;;;;;-0.86;62.14;100070.53;4485407;32;33786;-71
2022/01/08 01:10:12;;;;;;;12.10;10.93;;;;;;;-1.32;62.88;100064.84;4485204;32;35069;-71
2022/01/08 01:12:39;;;;;;;2.58;1.77;;;;;;;-0.75;62.38;100056.03;4485202;32;34435;-71
2022/01/08 01:15:12;;;;;;;2.80;2.35;;;;;;;-0.66;61.66;100038.22;4485233;32;33444;-70
2022/01/08 01:17:40;;;;;;;3.10;1.77;;;;;;;-0.83;61.21;100046.22;4485015;32;34767;-71
2022/01/08 01:20:09;;;;;;;51.30;25.73;;;;;;;-1.04;61.73;100040.56;4471342;32;34294;-71
2022/01/08 01:22:51;;;;;;;1.98;1.77;;;;;;;-1.08;62.25;100039.22;4485082;32;34009;-72
2022/01/08 01:25:25;;;;;;;50.22;26.52;;;;;;;-0.81;61.40;100040.72;4485027;32;33198;-72
2022/01/08 01:47:12;;;;;;;2.37;1.60;;;;;;;-1.65;63.49;100024.03;4484718;32;33494;-72
2022/01/08 01:49:45;;;;;;;2.67;1.90;;;;;;;-1.73;63.19;100016.87;4484995;32;33813;-71
2022/01/08 01:52:15;;;;;;;3.53;2.22;;;;;;;-1.05;61.12;100010.44;4472823;32;33364;-72
2022/01/08 01:54:43;;;;;;;40.60;21.27;;;;;;;-0.85;60.34;100012.75;4486618;32;34024;-71
2022/01/08 01:57:13;;;;;;;37.55;20.62;;;;;;;-1.11;60.66;100010.28;4486602;32;33529;-71
2022/01/08 01:59:41;;;;;;;5.07;2.40;;;;;;;-1.59;62.08;100006.59;4472708;32;33717;-72
2022/01/08 02:02:09;;;;;;;13.62;7.15;;;;;;;-1.21;60.91;100006.94;4486570;32;34586;-71
2022/01/08 02:04:37;;;;;;;3.05;2.85;;;;;;;-1.26;61.23;100002.94;4486675;32;33659;-71
2022/01/08 02:07:07;;;;;;;37.35;18.75;;;;;;;-1.07;60.68;100006.28;4486566;32;33438;-72
2022/01/08 02:09:37;;;;;;;28.00;15.40;;;;;;;-1.54;61.64;100004.25;4472271;32;33993;-71
2022/01/08 02:12:07;;;;;;;32.95;17.15;;;;;;;-1.26;60.95;100002.13;4473132;32;34968;-72
2022/01/08 02:14:36;;;;;;;2.08;1.90;;;;;;;-1.97;62.89;100004.31;4472166;32;34116;-71
2022/01/08 02:17:06;;;;;;;31.83;16.98;;;;;;;-1.73;62.27;99997.41;4486732;32;33598;-71
2022/01/08 02:19:33;;;;;;;16.65;9.07;;;;;;;-1.42;61.16;99996.81;4472485;32;33603;-71
2022/01/08 02:22:03;;;;;;;1.65;0.93;;;;;;;-1.51;61.53;99994.13;4472242;32;34053;-71
2022/01/08 02:24:31;;;;;;;32.40;16.52;;;;;;;-1.89;61.89;100004.34;4486638;32;33618;-71
2022/01/08 02:26:59;;;;;;;1.58;0.90;;;;;;;-2.13;62.67;99997.12;4486418;32;33208;-72
2022/01/08 02:29:26;;;;;;;0.93;0.93;;;;;;;-1.48;60.67;99993.78;4486375;32;34000;-71
2022/01/08 02:31:54;;;;;;;26.08;11.65;;;;;;;-2.11;62.27;99987.16;4486482;32;34099;-71
2022/01/08 02:34:23;;;;;;;14.95;8.57;;;;;;;-2.47;63.07;99991.81;4486364;32;34730;-71
2022/01/08 02:36:51;;;;;;;4.28;3.95;;;;;;;-2.39;62.89;99980.41;4472047;32;33174;-71
2022/01/08 02:39:18;;;;;;;2.17;1.95;;;;;;;-2.22;62.54;99986.63;4472172;32;33899;-71
2022/01/08 02:41:46;;;;;;;29.60;15.15;;;;;;;-1.64;61.37;99980.47;4486244;32;33911;-72
2022/01/08 02:44:13;;;;;;;8.85;4.35;;;;;;;-1.70;61.19;99984.63;4486237;32;33898;-71
2022/01/08 02:46:41;;;;;;;13.57;8.85;;;;;;;-1.73;60.59;99984.09;4486405;32;33180;-71
2022/01/08 02:49:09;;;;;;;28.92;14.38;;;;;;;-1.91;61.01;99987.72;4486231;32;34101;-71
2022/01/08 02:51:37;;;;;;;0.57;0.57;;;;;;;-2.49;62.49;99991.16;4486170;32;34187;-71
2022/01/08 02:54:11;;;;;;;2.65;2.42;;;;;;;-2.01;61.87;99984.34;4486395;32;34822;-71
2022/01/08 02:56:40;;;;;;;1.05;0.88;;;;;;;-2.22;62.63;99979.50;4486040;32;34268;-71
2022/01/08 02:59:08;;;;;;;0.70;0.70;;;;;;;-2.56;63.02;99971.53;4486151;32;34014;-71
2022/01/08 03:01:36;;;;;;;0.50;0.50;;;;;;;-2.87;63.60;99972.03;4485699;32;34294;-71
2022/01/08 03:04:04;;;;;;;3.08;2.67;;;;;;;-2.38;62.82;99974.91;4485872;32;34985;-71
2022/01/08 03:06:32;;;;;;;7.68;4.70;;;;;;;-2.60;63.39;99976.31;4486400;32;33729;-71
2022/01/08 03:09:00;;;;;;;24.50;12.90;;;;;;;-2.09;61.21;99966.56;4486221;32;33895;-71
2022/01/08 03:11:27;;;;;;;0.68;0.68;;;;;;;-2.49;61.87;99976.03;4485781;32;34070;-72
2022/01/08 03:13:55;;;;;;;1.85;1.25;;;;;;;-2.29;61.60;99968.66;4486351;32;34716;-71
2022/01/08 03:16:22;;;;;;;26.15;12.90;;;;;;;-3.17;63.31;99966.19;4472109;32;33599;-71
2022/01/08 03:18:50;;;;;;;3.70;2.42;;;;;;;-2.21;61.28;99969.69;4486039;32;34596;-71
2022/01/08 03:21:20;;;;;;;14.05;2.30;;;;;;;-3.11;63.28;99977.97;4471901;32;34152;-71
2022/01/08 03:23:59;;;;;;;1.70;1.60;;;;;;;-2.98;63.65;99977.56;4486105;32;34613;-71
2022/01/08 03:26:28;;;;;;;2.28;1.02;;;;;;;-3.25;65.01;99973.25;4485988;32;33433;-71
2022/01/08 03:28:56;;;;;;;1.40;1.37;;;;;;;-3.15;64.22;99971.34;4486070;32;33857;-71
2022/01/08 03:31:25;;;;;;;6.60;4.62;;;;;;;-2.73;63.46;99976.75;4485858;32;34075;-71
2022/01/08 03:33:53;;;;;;;13.70;8.15;;;;;;;-2.71;62.25;99980.06;4486069;32;33831;-71
2022/01/08 03:36:23;;;;;;;7.43;3.83;;;;;;;-3.33;63.97;99980.13;4486161;32;33135;-71
2022/01/08 03:38:51;;;;;;;5.53;3.60;;;;;;;-3.25;64.13;99984.69;4485994;32;33784;-71
2022/01/08 03:41:20;;;;;;;33.60;17.10;;;;;;;-2.93;63.68;99984.09;4485744;32;34942;-71
2022/01/08 03:43:47;;;;;;;0.93;0.93;;;;;;;-2.97;62.92;99987.22;4485829;32;34062;-72
2022/01/08 03:46:18;;;;;;;0.60;0.60;;;;;;;-2.87;64.19;99982.66;4485820;32;34085;-71
2022/01/08 03:49:10;;;;;;;1.45;1.35;;;;;;;-3.19;64.99;99991.22;4486016;32;34536;-71
2022/01/08 03:51:35;;;;;;;0.57;0.57;;;;;;;-2.91;64.05;99997.22;4485612;32;34952;-71
2022/01/08 03:54:03;;;;;;;41.53;18.77;;;;;;;-2.69;63.29;99991.38;4485879;32;34230;-71
2022/01/08 03:56:30;;;;;;;5.37;4.87;;;;;;;-2.97;63.50;99989.88;4486254;32;34510;-71
2022/01/08 03:58:58;;;;;;;3.92;2.75;;;;;;;-3.71;65.30;99990.09;4485593;32;34842;-71
2022/01/08 04:01:25;;;;;;;1.55;1.50;;;;;;;-2.81;62.54;99987.31;4485808;32;35078;-71
2022/01/08 04:03:53;;;;;;;2.67;2.47;;;;;;;-2.57;62.76;99991.09;4485770;32;34649;-71
2022/01/08 04:06:20;;;;;;;22.85;12.77;;;;;;;-2.70;63.15;99988.88;4485739;32;32686;-71
2022/01/08 04:08:48;;;;;;;1.85;1.58;;;;;;;-3.49;64.98;99984.50;4486048;32;34585;-71
2022/01/08 04:11:16;;;;;;;1.67;1.17;;;;;;;-3.41;64.55;99973.91;4471542;32;34199;-70
2022/01/08 04:13:43;;;;;;;0.95;0.85;;;;;;;-3.52;64.12;99972.34;4484490;32;33589;-71
2022/01/08 04:16:14;;;;;;;1.20;0.93;;;;;;;-3.00;63.96;99974.25;4485845;32;33222;-71
2022/01/08 04:18:42;;;;;;;2.72;2.58;;;;;;;-2.58;62.48;99970.84;4485229;32;34555;-71
2022/01/08 04:23:37;;;;;;;3.60;3.30;;;;;;;-2.45;60.38;99959.78;4485744;32;34598;-71
2022/01/08 04:26:05;;;;;;;3.58;1.98;;;;;;;-2.58;60.27;99950.44;4485459;32;34303;-71
2022/01/08 04:28:32;;;;;;;1.45;0.95;;;;;;;-2.88;61.01;99962.37;4485765;32;33793;-71
2022/01/08 04:30:59;;;;;;;1.37;0.75;;;;;;;-2.81;60.76;99955.44;4471435;32;34308;-71
2022/01/08 04:33:27;;;;;;;0.70;0.70;;;;;;;-3.00;62.87;99955.66;4485511;32;33975;-71
2022/01/08 04:35:55;;;;;;;1.48;1.17;;;;;;;-2.70;62.08;99944.56;4485747;32;33420;-71
2022/01/08 04:38:23;;;;;;;0.65;0.65;;;;;;;-2.94;64.12;99936.44;4485388;32;33997;-71
2022/01/08 04:40:50;;;;;;;0.95;0.95;;;;;;;-3.38;65.25;99934.66;4471298;32;34089;-71
2022/01/08 04:43:18;;;;;;;0.70;0.70;;;;;;;-3.15;64.95;99929.72;4485181;32;34002;-71
2022/01/08 04:45:45;;;;;;;1.73;1.60;;;;;;;-3.18;64.84;99926.53;4485454;32;33239;-71
2022/01/08 04:48:13;;;;;;;0.50;0.50;;;;;;;-3.60;64.49;99925.37;4485436;32;34638;-71
2022/01/08 04:50:40;;;;;;;16.60;9.50;;;;;;;-3.07;63.98;99928.09;4485071;32;35087;-71
2022/01/08 04:53:07;;;;;;;0.70;0.70;;;;;;;-3.31;64.45;99926.91;4484653;32;33854;-89
2022/01/08 04:55:35;;;;;;;0.85;0.85;;;;;;;-3.30;63.71;99932.09;4484992;32;34144;-70
2022/01/08 04:58:04;;;;;;;15.90;8.75;;;;;;;-2.71;61.58;99926.97;4485327;32;34498;-71
2022/01/08 05:00:32;;;;;;;3.03;2.08;;;;;;;-3.39;63.21;99922.41;4482802;32;34295;-71
2022/01/08 05:03:00;;;;;;;1.05;1.05;;;;;;;-3.77;64.56;99915.63;4464162;32;33897;-71
2022/01/08 05:05:27;;;;;;;0.50;0.50;;;;;;;-3.43;64.08;99912.25;4468725;32;33910;-71
2022/01/08 05:07:55;;;;;;;0.50;0.50;;;;;;;-3.62;64.67;99915.91;4469061;32;33974;-71
2022/01/08 05:10:23;;;;;;;0.60;0.60;;;;;;;-3.10;63.76;99918.63;4469110;32;35089;-72
2022/01/08 05:12:50;;;;;;;3.70;2.72;;;;;;;-3.37;64.33;99915.13;4467102;32;32419;-72
2022/01/08 05:15:18;;;;;;;0.77;0.77;;;;;;;-3.25;64.37;99918.34;4481475;32;32942;-72
2022/01/08 05:17:52;;;;;;;0.70;0.70;;;;;;;-3.17;64.30;99931.69;4485034;32;33915;-72
2022/01/08 05:20:20;;;;;;;17.58;9.65;;;;;;;-3.06;63.96;99924.47;4482829;32;34407;-72
2022/01/08 05:25:16;;;;;;;1.08;0.98;;;;;;;-2.87;63.83;99924.25;4483818;32;34114;-71
2022/01/08 05:27:45;;;;;;;1.37;1.10;;;;;;;-3.19;64.54;99928.34;4479097;32;33945;-71
2022/01/08 05:30:14;;;;;;;7.43;3.80;;;;;;;-2.87;63.98;99934.84;4475835;32;34305;-71
2022/01/08 05:32:42;;;;;;;20.37;10.00;;;;;;;-2.96;63.96;99935.78;4474116;32;33926;-71
2022/01/08 05:35:10;;;;;;;0.73;0.73;;;;;;;-3.14;65.24;99930.53;4475246;31;33530;-69
2022/01/08 05:37:38;;;;;;;19.77;10.93;;;;;;;-3.05;64.38;99923.44;4474108;32;34786;-70
2022/01/08 05:40:06;;;;;;;0.88;0.77;;;;;;;-3.17;64.92;99926.38;4475118;32;35042;-70
2022/01/08 05:42:33;;;;;;;5.68;2.78;;;;;;;-2.80;64.00;99925.25;4474127;32;33962;-70
2022/01/08 05:45:01;;;;;;;6.50;4.60;;;;;;;-2.84;63.63;99926.56;4474553;32;33348;-70
2022/01/08 05:47:33;;;;;;;19.08;10.90;;;;;;;-2.75;63.41;99914.16;4459997;32;33797;-69
2022/01/08 05:50:04;;;;;;;5.65;5.15;;;;;;;-2.44;62.85;99917.13;4474233;32;33971;-69
2022/01/08 05:52:31;;;;;;;6.70;5.35;;;;;;;-2.50;62.91;99921.25;4472141;32;34109;-69
2022/01/08 05:54:59;;;;;;;1.23;0.93;;;;;;;-2.79;63.26;99928.75;4476369;32;33745;-75
2022/01/08 05:57:26;;;;;;;29.17;15.82;;;;;;;-2.50;62.47;99923.09;4460344;32;34021;-70
2022/01/08 05:59:54;;;;;;;1.67;1.20;;;;;;;-2.46;61.85;99927.09;4473393;32;34820;-70
2022/01/08 06:02:21;;;;;;;3.72;2.25;;;;;;;-2.78;63.00;99941.03;4465341;32;32392;-69
2022/01/08 06:04:49;;;;;;;7.97;3.70;;;;;;;-2.91;63.21;99936.16;4473603;32;33071;-70
2022/01/08 06:07:16;;;;;;;1.02;0.95;;;;;;;-2.73;62.26;99946.69;4472782;32;34772;-69
2022/01/08 06:09:43;;;;;;;0.50;0.50;;;;;;;-3.56;64.44;99953.25;4477260;32;33940;-71
2022/01/08 06:12:11;;;;;;;0.60;0.60;;;;;;;-3.63;64.55;99960.16;4483844;32;34045;-71
2022/01/08 06:14:39;;;;;;;0.43;0.43;;;;;;;-3.36;64.44;99961.88;4470063;32;34219;-70
2022/01/08 06:17:07;;;;;;;0.50;0.50;;;;;;;-3.04;63.29;99964.94;4480935;32;34757;-70
2022/01/08 06:19:34;;;;;;;5.25;4.53;;;;;;;-2.63;61.88;99974.00;4481837;32;35168;-71
2022/01/08 06:22:02;;;;;;;0.75;0.75;;;;;;;-2.65;60.92;99975.12;4483184;32;34690;-71
2022/01/08 06:24:29;;;;;;;28.23;13.57;;;;;;;-2.72;61.29;99973.13;4484326;32;33762;-75
2022/01/08 06:26:57;;;;;;;6.53;3.45;;;;;;;-3.26;63.07;99968.91;4484337;32;34771;-70
2022/01/08 06:29:24;;;;;;;26.50;12.40;;;;;;;-3.03;63.19;99971.91;4483814;32;34151;-69
2022/01/08 06:31:53;;;;;;;2.30;0.85;;;;;;;-3.06;63.19;99970.41;4483924;32;33780;-70
2022/01/08 06:34:21;;;;;;;6.40;3.25;;;;;;;-2.78;61.62;99970.25;4483978;32;34370;-71
2022/01/08 06:36:48;;;;;;;0.50;0.50;;;;;;;-2.52;59.84;99955.13;4485343;32;34025;-68
2022/01/08 06:39:17;;;;;;;1.27;1.17;;;;;;;-3.31;61.72;99959.59;4472040;32;35097;-69
2022/01/08 06:41:44;;;;;;;8.98;5.57;;;;;;;-3.31;62.02;99954.28;4486342;32;34762;-71
2022/01/08 06:44:12;;;;;;;0.88;0.88;;;;;;;-3.09;62.25;99962.72;4486022;32;33560;-69
2022/01/08 06:46:40;;;;;;;0.52;0.52;;;;;;;-3.28;62.89;99968.22;4486347;32;33589;-68
2022/01/08 06:49:09;;;;;;;0.50;0.50;;;;;;;-2.74;60.67;99961.81;4486316;32;35087;-70
2022/01/08 06:51:36;;;;;;;3.42;3.12;;;;;;;-3.07;62.27;99950.13;4485975;32;34550;-69
2022/01/08 06:54:04;;;;;;;1.17;1.12;;;;;;;-3.18;62.68;99953.88;4486506;32;33110;-68
2022/01/08 06:56:31;;;;;;;1.55;1.17;;;;;;;-3.42;63.83;99943.09;4486217;32;34573;-69
2022/01/08 06:58:59;;;;;;;1.50;1.40;;;;;;;-3.40;63.71;99949.91;4485862;32;33911;-69
2022/01/08 07:01:26;;;;;;;4.37;2.67;;;;;;;-3.13;63.49;99956.09;4486043;32;34838;-69
2022/01/08 07:03:55;;;;;;;4.87;2.87;;;;;;;-2.84;62.03;99962.91;4486248;32;33389;-69
2022/01/08 07:06:23;;;;;;;2.17;1.30;;;;;;;-2.96;62.62;99957.00;4471939;32;34010;-70
2022/01/08 07:08:53;;;;;;;8.30;5.68;;;;;;;-3.14;63.49;99957.06;4485929;32;33992;-70
2022/01/08 07:11:20;;;;;;;2.05;1.95;;;;;;;-2.78;63.23;99941.88;4471561;32;34842;-71
2022/01/08 07:13:48;;;;;;;1.17;1.08;;;;;;;-2.82;62.13;99937.84;4484429;32;34466;-81
2022/01/08 07:16:15;;;;;;;5.68;1.80;;;;;;;-3.06;61.71;99935.91;4485573;32;34706;-75
2022/01/08 07:18:43;;;;;;;2.92;1.25;;;;;;;-2.69;62.25;99932.94;4485698;32;34191;-71
2022/01/08 07:21:10;;;;;;;0.62;0.62;;;;;;;-2.80;62.68;99938.53;4485988;32;34170;-76
2022/01/08 07:23:38;;;;;;;15.90;8.73;;;;;;;-3.01;62.72;99930.13;4486084;32;33241;-71
2022/01/08 07:26:05;;;;;;;0.77;0.62;;;;;;;-2.25;59.86;99934.63;4485779;32;34056;-78
2022/01/08 07:28:33;;;;;;;3.30;1.77;;;;;;;-2.23;58.93;99924.66;4485504;32;34109;-71
2022/01/08 07:31:00;;;;;;;2.70;2.45;;;;;;;-2.78;61.45;99917.16;4485887;32;33702;-73
2022/01/08 07:33:28;;;;;;;2.47;2.28;;;;;;;-3.00;62.70;99923.81;4485504;32;33440;-77
2022/01/08 07:35:55;;;;;;;2.20;2.05;;;;;;;-2.72;62.30;99922.66;4481434;32;34024;-73
2022/01/08 07:38:23;;;;;;;7.22;4.93;;;;;;;-2.12;60.70;99936.81;4485916;32;34196;-71
2022/01/08 07:40:51;;;;;;;44.70;21.90;;;;;;;-2.50;61.91;99923.91;4478762;32;34650;-72
2022/01/08 07:43:19;;;;;;;6.20;4.30;;;;;;;-2.42;61.70;99928.41;4495179;31;34423;-73
2022/01/08 07:45:47;;;;;;;0.50;0.50;;;;;;;-2.71;62.05;99942.88;4487747;31;34804;-73
2022/01/08 07:48:15;;;;;;;6.90;5.22;;;;;;;-3.34;64.13;99937.84;4501373;31;34233;-71
2022/01/08 07:50:43;;;;;;;8.13;4.43;;;;;;;-2.21;61.35;99921.84;4501237;31;33756;-69
2022/01/08 07:53:11;;;;;;;4.68;3.15;;;;;;;-2.30;61.67;99915.66;4501543;31;33441;-69
2022/01/08 07:55:38;;;;;;;1.73;1.17;;;;;;;-2.51;62.10;99908.13;4501160;31;33605;-69
2022/01/08 07:58:05;;;;;;;9.82;6.00;;;;;;;-2.32;62.78;99905.19;4493467;31;34189;-68
2022/01/08 08:00:33;;;;;;;0.60;0.60;;;;;;;-1.94;61.97;99897.66;4485325;32;34894;-70
2022/01/08 08:03:02;;;;;;;33.72;17.95;;;;;;;-1.20;60.78;99900.31;4485319;32;33581;-72
2022/01/08 08:05:32;;;;;;;0.75;0.73;;;;;;;-0.89;58.86;99900.38;4483142;32;33648;-70
2022/01/08 08:08:00;;;;;;;0.55;0.50;;;;;;;-1.06;57.52;99902.28;4471823;32;34919;-70
2022/01/08 08:10:29;;;;;;;28.17;14.68;;;;;;;-0.38;56.79;99896.56;4485404;32;34839;-70
2022/01/08 08:12:57;;;;;;;21.40;11.02;;;;;;;0.01;58.36;99901.00;4485522;32;33525;-71
2022/01/08 08:15:25;;;;;;;2.20;2.00;;;;;;;0.41;57.15;99897.19;4485655;32;34865;-69
2022/01/08 08:17:53;;;;;;;4.12;3.50;;;;;;;0.92;54.61;99892.06;4485365;32;35085;-71
2022/01/08 08:20:20;;;;;;;29.30;13.23;;;;;;;1.17;52.83;99879.28;4471034;32;33569;-70
2022/01/08 08:22:48;;;;;;;22.02;10.48;;;;;;;1.30;53.12;99873.28;4485538;32;33637;-70
2022/01/08 08:25:16;;;;;;;21.10;9.90;;;;;;;1.44;51.89;99875.09;4485274;32;33861;-70
2022/01/08 08:27:43;;;;;;;2.25;2.05;;;;;;;1.69;51.31;99880.16;4485303;32;34897;-73
2022/01/08 08:30:11;;;;;;;17.23;9.75;;;;;;;1.94;50.56;99872.59;4471424;32;34449;-70
2022/01/08 08:32:39;;;;;;;19.98;11.43;;;;;;;1.88;48.49;99861.81;4471192;32;34141;-70
2022/01/08 08:35:07;;;;;;;1.15;0.73;;;;;;;1.49;49.00;99873.72;4485128;32;33742;-78
2022/01/08 08:37:35;;;;;;;3.95;2.60;;;;;;;1.61;48.93;99864.19;4482660;32;87122;-76
2022/01/08 08:40:10;;;;;;;22.52;13.35;;;;;;;1.76;49.10;99861.50;4485495;32;33906;-74
2022/01/08 08:42:38;;;;;;;21.60;13.45;;;;;;;1.46;50.48;99861.56;4471306;32;33613;-77
2022/01/08 08:45:07;;;;;;;31.52;16.23;;;;;;;1.12;51.60;99862.13;4485531;32;33863;-76
2022/01/08 08:47:35;;;;;;;28.10;17.52;;;;;;;0.87;51.79;99864.25;4471344;32;34127;-79
2022/01/08 08:50:03;;;;;;;32.30;18.20;;;;;;;1.14;51.76;99862.78;4485103;32;34262;-78
2022/01/08 08:52:30;;;;;;;28.33;17.02;;;;;;;1.00;52.52;99872.47;4471042;32;33882;-78
2022/01/08 08:54:58;;;;;;;29.83;16.37;;;;;;;0.65;53.06;99874.81;4485145;32;33940;-77
2022/01/08 08:57:26;;;;;;;28.73;16.33;;;;;;;1.04;52.89;99879.09;4485619;32;34151;-75
2022/01/08 08:59:55;;;;;;;31.00;17.15;;;;;;;1.23;52.96;99869.69;4484423;32;33906;-78
2022/01/08 09:02:22;;;;;;;1.45;1.35;;;;;;;1.12;53.65;99880.84;4485344;32;34456;-73
2022/01/08 09:04:50;;;;;;;30.88;17.12;;;;;;;1.35;53.75;99873.56;4475650;32;33782;-77
2022/01/08 09:07:18;;;;;;;24.40;15.40;;;;;;;0.71;55.66;99862.56;4468938;32;34993;-75
2022/01/08 09:09:46;;;;;;;25.67;14.20;;;;;;;0.76;55.86;99855.69;4468728;32;33926;-76
2022/01/08 09:12:16;;;;;;;1.98;1.83;;;;;;;1.16;54.90;99850.88;4455186;32;34403;-75
2022/01/08 09:14:43;;;;;;;25.40;14.68;;;;;;;1.41;53.55;99867.47;4468916;32;34224;-77
2022/01/08 09:17:14;;;;;;;26.30;15.35;;;;;;;0.81;54.56;99860.47;4455498;32;34368;-75
2022/01/08 09:19:42;;;;;;;9.38;3.40;;;;;;;1.19;53.04;99852.38;4469032;32;33825;-76
2022/01/08 09:22:11;;;;;;;20.45;13.57;;;;;;;1.41;53.71;99850.59;4469512;32;33468;-76
2022/01/08 09:24:39;;;;;;;24.80;15.77;;;;;;;0.25;55.60;99852.78;4469386;32;34896;-72
2022/01/08 09:27:07;;;;;;;5.68;4.32;;;;;;;0.87;55.58;99857.06;4467504;32;33805;-71
2022/01/08 09:29:35;;;;;;;1.40;1.30;;;;;;;1.01;54.45;99842.88;4469202;32;33620;-71
2022/01/08 09:32:07;;;;;;;32.58;19.37;;;;;;;1.94;54.44;99836.97;4468960;32;34278;-71
2022/01/08 09:34:40;;;;;;;33.80;18.12;;;;;;;1.96;51.67;99838.44;4468630;32;34786;-71
2022/01/08 09:37:09;;;;;;;21.60;12.52;;;;;;;2.24;49.58;99833.16;4467748;32;33976;-71
2022/01/08 09:39:39;;;;;;;21.27;13.62;;;;;;;1.05;51.56;99829.16;4455120;32;33882;-69
2022/01/08 09:42:10;;;;;;;24.17;14.30;;;;;;;1.41;51.70;99824.69;4442131;32;33350;-72
2022/01/08 09:44:39;;;;;;;18.12;10.98;;;;;;;1.88;52.06;99825.22;4469210;32;34055;-71
2022/01/08 09:47:07;;;;;;;0.85;0.85;;;;;;;1.78;50.27;99825.50;4455043;32;34005;-68
2022/01/08 09:49:34;;;;;;;2.15;1.95;;;;;;;1.27;50.96;99827.38;4468702;32;34010;-81
2022/01/08 09:52:03;;;;;;;1.85;1.20;;;;;;;0.86;53.18;99820.66;4468883;32;33158;-69
2022/01/08 09:54:32;;;;;;;20.52;11.20;;;;;;;1.02;53.76;99819.66;4468840;32;33772;-69
2022/01/08 09:56:59;;;;;;;17.90;11.68;;;;;;;1.23;52.33;99821.56;4469009;32;34164;-69
2022/01/08 09:59:28;;;;;;;21.87;11.75;;;;;;;1.39;52.12;99825.91;4468830;32;33887;-68
2022/01/08 10:01:59;;;;;;;21.17;12.65;;;;;;;0.94;53.26;99822.44;4468086;32;34137;-68
2022/01/08 10:04:33;;;;;;;22.27;11.73;;;;;;;1.15;54.18;99827.03;4454331;32;35010;-67
2022/01/08 10:07:20;;;;;;;24.02;12.88;;;;;;;1.44;52.75;99812.78;4468617;32;33990;-71
2022/01/08 10:10:11;;;;;;;1.55;1.42;;;;;;;1.42;53.30;99806.78;4468767;32;34692;-68
2022/01/08 10:12:44;;;;;;;19.42;10.93;;;;;;;1.36;52.57;99804.88;4470325;32;34380;-67
2022/01/08 10:18:01;;;;;;;18.85;11.45;;;;;;;2.17;49.89;99789.44;4470677;32;34306;-71
2022/01/08 10:20:35;;;;;;;16.65;9.68;;;;;;;1.30;53.84;99794.94;4456405;32;34665;-68
2022/01/08 10:23:23;;;;;;;1.25;1.15;;;;;;;1.70;50.81;99790.03;4456389;32;34290;-67
2022/01/08 10:25:54;;;;;;;14.32;8.57;;;;;;;0.52;53.66;99784.66;4470206;32;34026;-67
2022/01/08 10:28:37;;;;;;;15.88;9.05;;;;;;;0.86;52.97;99785.94;4470335;32;34228;-67
2022/01/08 10:31:15;;;;;;;1.58;0.95;;;;;;;1.55;50.74;99782.88;4456617;32;34130;-68
2022/01/08 10:33:48;;;;;;;0.93;0.90;;;;;;;1.43;51.29;99782.56;4470216;32;34073;-68
2022/01/08 10:36:27;;;;;;;18.60;11.35;;;;;;;1.35;52.48;99793.34;4470730;32;33648;-67
2022/01/08 10:38:56;;;;;;;3.10;2.50;;;;;;;0.62;56.26;99795.06;4470338;32;35100;-68
2022/01/08 10:41:25;;;;;;;22.45;13.13;;;;;;;0.80;57.61;99792.88;4470232;32;33757;-67
2022/01/08 10:44:16;;;;;;;2.00;1.75;;;;;;;1.08;55.87;99786.88;4470324;32;33355;-68
2022/01/08 10:47:07;;;;;;;2.35;2.15;;;;;;;1.16;56.01;99788.59;4470663;32;34015;-69
2022/01/08 10:49:42;;;;;;;2.15;1.58;;;;;;;1.96;54.92;99786.78;4457324;32;35158;-69
2022/01/08 10:52:18;;;;;;;21.95;12.30;;;;;;;2.11;54.21;99794.75;4456582;32;33952;-69
2022/01/08 10:55:01;;;;;;;1.42;1.27;;;;;;;1.76;54.35;99787.41;4470946;32;33249;-68
2022/01/08 10:57:33;;;;;;;24.23;13.48;;;;;;;1.67;54.49;99793.91;4470586;32;33140;-69
2022/01/08 11:00:03;;;;;;;28.95;13.95;;;;;;;1.83;54.26;99790.97;4470389;32;33758;-69
2022/01/08 11:02:31;;;;;;;20.10;11.48;;;;;;;2.00;52.61;99793.41;4470375;32;33696;-69
2022/01/08 11:05:03;;;;;;;4.03;1.95;;;;;;;1.23;54.81;99797.50;4470342;32;32965;-70
2022/01/08 11:07:32;;;;;;;1.70;1.60;;;;;;;1.56;53.87;99787.22;4470454;32;33912;-69
2022/01/08 11:10:04;;;;;;;2.37;1.73;;;;;;;1.84;53.66;99787.31;4470491;32;35084;-69
2022/01/08 11:12:39;;;;;;;33.83;14.55;;;;;;;1.06;55.83;99791.56;4470311;32;34066;-69
2022/01/08 11:18:00;;;;;;;24.37;13.13;;;;;;;1.38;55.71;99782.31;4470331;32;34939;-69
2022/01/08 11:20:48;;;;;;;2.35;1.20;;;;;;;1.73;55.02;99781.63;4470154;32;33956;-77
2022/01/08 11:23:22;;;;;;;17.10;11.02;;;;;;;1.46;55.42;99778.66;4469931;32;34311;-69
2022/01/08 11:25:51;;;;;;;18.45;11.15;;;;;;;1.65;53.87;99771.87;4470400;32;33439;-69
2022/01/08 11:28:19;;;;;;;4.87;2.37;;;;;;;2.20;52.88;99772.16;4475811;32;34799;-72
2022/01/08 11:30:51;;;;;;;1.48;0.73;;;;;;;2.35;52.11;99777.44;4471694;32;35002;-68
2022/01/08 11:35:50;;;;;;;17.08;10.15;;;;;;;1.59;54.07;99776.12;4485953;32;33308;-69
2022/01/08 11:38:20;;;;;;;17.35;9.77;;;;;;;1.93;52.03;99777.31;4484956;32;33863;-73
2022/01/08 11:40:50;;;;;;;14.60;8.57;;;;;;;2.08;51.58;99774.56;4485604;32;34013;-70
2022/01/08 11:43:20;;;;;;;18.02;8.98;;;;;;;1.02;53.70;99774.25;4485039;32;34594;-71
2022/01/08 11:46:04;;;;;;;18.58;10.88;;;;;;;1.17;53.26;99777.72;4485587;32;34043;-76
2022/01/08 11:48:36;;;;;;;18.77;10.13;;;;;;;1.93;52.75;99773.81;4470115;32;33903;-71
2022/01/08 11:51:07;;;;;;;0.90;0.90;;;;;;;2.23;51.73;99769.12;4471507;32;34002;-71
2022/01/08 11:53:46;;;;;;;37.22;14.25;;;;;;;3.03;50.53;99770.44;4471379;32;33920;-72
2022/01/08 11:56:29;;;;;;;20.70;11.23;;;;;;;3.01;50.00;99769.81;4485566;32;33543;-71
2022/01/08 11:59:15;;;;;;;15.05;8.60;;;;;;;2.67;50.25;99767.97;4485303;32;33380;-73
2022/01/08 12:02:03;;;;;;;16.15;9.10;;;;;;;2.32;51.04;99767.94;4485582;32;34066;-74
2022/01/08 12:04:32;;;;;;;15.13;8.55;;;;;;;2.95;50.26;99757.19;4455432;32;34727;-74
2022/01/08 12:07:39;;;;;;;14.02;8.77;;;;;;;2.70;49.46;99743.47;4469994;32;34229;-75
2022/01/08 12:10:18;;;;;;;0.68;0.68;;;;;;;2.98;49.24;99746.09;4393836;32;33880;-71
2022/01/08 12:12:59;;;;;;;15.02;8.70;;;;;;;3.18;49.10;99740.81;4472565;32;34444;-71